Time;durP1;ratioP1;P1;durP2;ratioP2;P2;SDS_P1;SDS_P2;PMS_P1;PMS_P2;Temp;Humidity;BMP_temperature;BMP_pressure;BME280_temperature;BME280_humidity;BME280_pressure;Samples;Min_cycle;Max_cycle;Signal;HPM_P1;HPM_P2
2023/04/01 00:01:54;;;;;;;2.03;0.60;;;8.70;99.90;;;;;;4972358;28;20205;-73
2023/04/01 00:04:20;;;;;;;2.33;0.43;;;8.70;99.90;;;;;;4980274;28;20416;-73
2023/04/01 00:06:47;;;;;;;1.93;0.60;;;8.60;99.90;;;;;;4972074;28;20219;-74
2023/04/01 00:09:13;;;;;;;0.50;0.40;;;8.70;99.90;;;;;;4980178;28;20460;-73
2023/04/01 00:11:39;;;;;;;2.40;0.60;;;8.60;99.90;;;;;;4980210;28;20446;-73
2023/04/01 00:14:05;;;;;;;0.73;0.60;;;8.60;99.90;;;;;;4972435;28;20426;-73
2023/04/01 00:16:31;;;;;;;1.10;0.50;;;8.70;99.90;;;;;;4979708;28;20428;-73
2023/04/01 00:18:56;;;;;;;3.33;0.60;;;8.70;99.90;;;;;;4972406;28;20592;-73
2023/04/01 00:21:22;;;;;;;0.53;0.50;;;8.70;99.90;;;;;;4979966;28;20302;-73
2023/04/01 00:23:49;;;;;;;1.07;0.50;;;8.70;99.90;;;;;;4980304;28;20204;-73
2023/04/01 00:26:18;;;;;;;2.10;0.57;;;8.80;99.90;;;;;;4971779;28;20589;-72
2023/04/01 00:28:44;;;;;;;2.10;0.57;;;8.80;99.90;;;;;;4972192;28;20470;-74
2023/04/01 00:31:11;;;;;;;0.80;0.50;;;8.80;99.90;;;;;;4971943;28;20473;-73
2023/04/01 00:33:37;;;;;;;0.70;0.60;;;8.80;99.90;;;;;;4971959;28;20275;-73
2023/04/01 00:36:10;;;;;;;1.80;0.60;;;8.80;99.90;;;;;;4962661;28;20945;-73
2023/04/01 00:38:37;;;;;;;0.97;0.53;;;8.80;99.90;;;;;;4975163;28;20527;-74
2023/04/01 00:41:04;;;;;;;1.10;0.50;;;8.80;99.90;;;;;;4983369;28;20447;-73
2023/04/01 00:43:30;;;;;;;1.13;0.60;;;8.80;99.90;;;;;;4972888;28;20911;-73
2023/04/01 00:45:56;;;;;;;1.10;0.67;;;8.70;99.90;;;;;;4979996;28;20417;-73
2023/04/01 00:48:33;;;;;;;1.83;0.60;;;8.80;99.90;;;;;;4971874;28;20973;-73
2023/04/01 00:51:04;;;;;;;8.33;1.00;;;8.80;99.90;;;;;;4972060;28;20814;-73
2023/04/01 00:53:32;;;;;;;0.93;0.80;;;8.80;99.90;;;;;;4980023;28;20776;-74
2023/04/01 00:56:32;;;;;;;1.60;0.63;;;8.80;99.90;;;;;;4977794;28;20414;-73
2023/04/01 00:59:02;;;;;;;1.63;1.10;;;8.80;99.90;;;;;;4975184;28;20421;-73
2023/04/01 02:32:06;;;;;;;1.57;0.70;;;8.40;99.90;;;;;;5324075;23;20581;-75
2023/04/01 02:34:33;;;;;;;1.70;1.13;;;8.40;99.90;;;;;;4992155;28;20442;-75
2023/04/01 02:36:59;;;;;;;0.60;0.50;;;8.40;99.90;;;;;;4991582;28;20442;-73
2023/04/01 02:39:26;;;;;;;0.50;0.50;;;8.50;99.90;;;;;;4992467;28;20524;-72
2023/04/01 02:41:52;;;;;;;2.80;0.60;;;8.40;99.90;;;;;;4992861;28;20205;-74
2023/04/01 02:44:17;;;;;;;0.70;0.40;;;8.30;99.90;;;;;;4992686;28;20488;-73
2023/04/01 02:46:43;;;;;;;2.73;0.50;;;8.40;99.90;;;;;;4992493;28;20936;-73
2023/04/01 02:49:09;;;;;;;0.50;0.50;;;8.30;99.90;;;;;;4992698;28;20268;-73
2023/04/01 02:51:34;;;;;;;1.47;0.40;;;8.30;99.90;;;;;;4994184;28;20729;-71
2023/04/01 02:54:00;;;;;;;2.97;0.60;;;8.20;99.90;;;;;;4998875;28;20633;-73
2023/04/01 02:56:26;;;;;;;1.37;0.40;;;8.30;99.90;;;;;;4992419;28;20181;-73
2023/04/01 02:58:52;;;;;;;2.10;0.70;;;8.20;99.90;;;;;;4992554;28;20462;-73
2023/04/01 03:01:18;;;;;;;2.40;0.40;;;8.30;99.90;;;;;;4991689;28;20214;-72
2023/04/01 03:03:44;;;;;;;0.50;0.50;;;8.20;99.90;;;;;;4992298;28;20487;-73
2023/04/01 03:06:13;;;;;;;0.50;0.50;;;8.20;99.90;;;;;;4992197;28;20201;-72
2023/04/01 03:08:39;;;;;;;1.33;0.53;;;8.10;99.90;;;;;;4992123;28;20235;-73
2023/04/01 03:11:05;;;;;;;1.03;0.40;;;8.20;99.90;;;;;;4991982;28;20476;-72
2023/04/01 03:13:30;;;;;;;0.80;0.50;;;8.20;99.90;;;;;;5000233;28;20424;-72
2023/04/01 03:15:56;;;;;;;1.37;0.50;;;8.20;99.90;;;;;;4991990;28;20494;-73
2023/04/01 03:18:21;;;;;;;1.07;0.50;;;8.30;99.90;;;;;;4991969;28;20245;-71
2023/04/01 03:20:47;;;;;;;1.70;0.40;;;8.30;99.90;;;;;;4991398;28;20806;-73
2023/04/01 03:23:13;;;;;;;3.13;0.50;;;8.30;99.90;;;;;;4992049;28;20655;-73
2023/04/01 03:25:39;;;;;;;0.97;0.40;;;8.30;99.90;;;;;;4994042;28;20193;-72
2023/04/01 03:28:04;;;;;;;1.60;0.40;;;8.20;99.90;;;;;;4997491;28;20439;-72
2023/04/01 03:30:31;;;;;;;0.50;0.47;;;8.20;99.90;;;;;;4992432;28;20218;-72
2023/04/01 03:32:57;;;;;;;2.30;0.40;;;8.20;99.90;;;;;;4998725;28;20241;-72
2023/04/01 03:35:23;;;;;;;0.70;0.40;;;8.20;99.90;;;;;;4991741;28;20451;-71
2023/04/01 03:37:50;;;;;;;3.10;0.47;;;8.10;99.90;;;;;;4991947;28;20467;-72
2023/04/01 03:40:16;;;;;;;0.40;0.40;;;8.10;99.90;;;;;;4991905;28;20514;-73
2023/04/01 03:42:41;;;;;;;1.87;0.40;;;8.20;99.90;;;;;;4990180;28;20535;-73
2023/04/01 03:45:07;;;;;;;1.10;0.40;;;8.20;99.90;;;;;;4980265;28;20222;-73
2023/04/01 03:47:33;;;;;;;1.33;0.50;;;8.20;99.90;;;;;;4993703;28;20186;-71
2023/04/01 03:49:59;;;;;;;0.97;0.50;;;8.20;99.90;;;;;;4999513;28;20577;-72
2023/04/01 03:52:25;;;;;;;3.20;0.40;;;8.20;99.90;;;;;;4999652;28;20697;-70
2023/04/01 03:54:50;;;;;;;0.80;0.50;;;8.20;99.90;;;;;;4991583;28;20466;-72
2023/04/01 03:57:16;;;;;;;0.60;0.60;;;8.20;99.90;;;;;;4991704;28;20273;-73
2023/04/01 03:59:41;;;;;;;0.40;0.40;;;8.10;99.90;;;;;;4999491;28;20198;-72
2023/04/01 04:02:07;;;;;;;1.70;0.67;;;8.10;99.90;;;;;;4991310;28;20223;-72
2023/04/01 04:04:32;;;;;;;1.13;0.40;;;8.10;99.90;;;;;;4991349;28;20601;-73
2023/04/01 04:06:58;;;;;;;2.50;0.50;;;8.00;99.90;;;;;;4995756;28;20224;-72
2023/04/01 04:09:23;;;;;;;0.60;0.43;;;8.00;99.90;;;;;;4994868;28;20214;-72
2023/04/01 04:11:49;;;;;;;0.40;0.40;;;8.00;99.90;;;;;;4990985;28;20204;-72
2023/04/01 04:14:15;;;;;;;0.60;0.50;;;8.00;99.90;;;;;;4991707;28;20279;-72
2023/04/01 04:16:40;;;;;;;0.60;0.40;;;8.10;99.90;;;;;;4999950;28;20192;-71
2023/04/01 04:19:06;;;;;;;1.13;0.50;;;8.10;99.90;;;;;;4991170;28;20221;-71
2023/04/01 04:21:31;;;;;;;5.60;0.50;;;8.20;99.90;;;;;;4991154;28;20211;-71
2023/04/01 04:23:59;;;;;;;0.50;0.50;;;8.20;99.90;;;;;;4991262;28;20217;-72
2023/04/01 04:26:25;;;;;;;2.60;0.50;;;8.20;99.90;;;;;;4990076;28;20214;-72
2023/04/01 04:28:51;;;;;;;2.97;0.60;;;8.20;99.90;;;;;;4999310;28;20431;-71
2023/04/01 04:31:21;;;;;;;0.60;0.43;;;8.20;99.90;;;;;;4991447;28;20467;-72
2023/04/01 04:33:46;;;;;;;1.83;0.60;;;8.20;99.90;;;;;;4995660;28;20191;-73
2023/04/01 04:36:14;;;;;;;1.90;0.40;;;8.10;99.90;;;;;;4995436;28;20791;-73
2023/04/01 04:38:39;;;;;;;0.83;0.60;;;8.10;99.90;;;;;;5003671;28;20557;-73
2023/04/01 04:41:10;;;;;;;2.13;0.50;;;8.10;99.90;;;;;;5003222;28;20452;-72
2023/04/01 04:43:35;;;;;;;2.63;0.50;;;8.00;99.90;;;;;;5011125;28;20192;-72
2023/04/01 04:46:05;;;;;;;5.53;1.23;;;8.00;99.90;;;;;;4999443;28;20793;-73
2023/04/01 04:48:31;;;;;;;0.50;0.50;;;8.00;99.90;;;;;;5013796;28;20188;-71
2023/04/01 04:50:56;;;;;;;2.10;0.50;;;8.00;99.90;;;;;;4998794;28;21049;-72
2023/04/01 04:53:22;;;;;;;0.40;0.40;;;8.00;99.90;;;;;;4998997;28;20194;-72
2023/04/01 04:55:49;;;;;;;1.07;0.50;;;8.00;99.90;;;;;;4994603;28;20191;-72
2023/04/01 04:58:16;;;;;;;3.53;0.70;;;7.90;99.90;;;;;;4991899;28;20594;-72
2023/04/01 05:00:42;;;;;;;1.27;0.50;;;7.90;99.90;;;;;;4996259;28;20450;-73
2023/04/01 05:03:07;;;;;;;1.07;0.50;;;7.90;99.90;;;;;;5003533;28;20433;-73
2023/04/01 05:05:33;;;;;;;1.87;0.67;;;7.90;99.90;;;;;;4995886;28;20480;-72
2023/04/01 05:07:59;;;;;;;1.33;0.57;;;7.90;99.90;;;;;;4995086;28;20212;-71
2023/04/01 05:10:24;;;;;;;0.40;0.40;;;7.90;99.90;;;;;;4994698;28;20211;-72
2023/04/01 05:12:50;;;;;;;1.03;0.40;;;7.90;99.90;;;;;;4995136;28;20182;-72
2023/04/01 05:15:15;;;;;;;2.00;0.50;;;7.90;99.90;;;;;;4995080;28;20321;-73
2023/04/01 05:17:41;;;;;;;1.03;0.50;;;7.90;99.90;;;;;;5002992;28;20196;-73
2023/04/01 05:20:07;;;;;;;1.47;0.50;;;7.90;99.90;;;;;;4993845;28;20720;-72
2023/04/01 05:22:32;;;;;;;2.80;0.50;;;7.90;99.90;;;;;;4994609;28;20258;-71
2023/04/01 05:24:58;;;;;;;0.50;0.50;;;7.90;99.90;;;;;;5001925;28;20455;-72
2023/04/01 05:27:23;;;;;;;6.77;0.70;;;7.90;99.90;;;;;;4995465;28;20201;-70
2023/04/01 05:29:49;;;;;;;2.83;0.60;;;8.00;99.90;;;;;;4993263;28;20626;-70
2023/04/01 05:32:15;;;;;;;3.17;0.70;;;8.00;99.90;;;;;;5002087;28;20228;-70
2023/04/01 05:34:40;;;;;;;3.93;0.50;;;8.10;99.90;;;;;;4994145;28;20191;-70
2023/04/01 05:37:07;;;;;;;3.03;0.53;;;8.10;99.90;;;;;;5001984;28;20424;-69
2023/04/01 05:39:37;;;;;;;1.03;0.70;;;8.20;99.90;;;;;;4993739;28;20192;-70
2023/04/01 05:42:02;;;;;;;2.70;0.60;;;8.30;99.90;;;;;;4994045;28;20450;-70
2023/04/01 05:44:28;;;;;;;1.73;0.40;;;8.40;99.90;;;;;;5001046;28;20435;-70
2023/04/01 05:46:54;;;;;;;0.87;0.53;;;8.40;99.90;;;;;;4993734;28;20563;-72
2023/04/01 05:49:19;;;;;;;1.10;0.60;;;8.50;99.90;;;;;;4993562;28;20220;-70
2023/04/01 05:51:45;;;;;;;1.17;0.70;;;8.60;99.90;;;;;;4993496;28;20225;-70
2023/04/01 05:54:10;;;;;;;1.23;0.57;;;8.70;99.90;;;;;;4993671;28;20183;-71
2023/04/01 05:56:36;;;;;;;1.33;0.50;;;8.80;99.90;;;;;;4993343;28;20188;-70
2023/04/01 05:59:01;;;;;;;4.63;0.70;;;8.90;99.90;;;;;;5001737;28;20204;-69
2023/04/01 06:01:27;;;;;;;1.00;0.60;;;9.00;99.90;;;;;;4993461;28;20308;-71
2023/04/01 06:03:52;;;;;;;2.30;0.40;;;9.20;99.90;;;;;;4993483;28;20280;-71
2023/04/01 06:06:27;;;;;;;0.60;0.50;;;9.30;99.90;;;;;;4993352;28;20603;-73
2023/04/01 06:08:55;;;;;;;1.63;0.43;;;9.40;99.90;;;;;;4996029;28;20201;-70
2023/04/01 06:11:51;;;;;;;2.83;0.60;;;9.60;99.90;;;;;;4997793;28;20478;-69
2023/04/01 06:14:26;;;;;;;1.70;0.40;;;9.70;99.90;;;;;;4993396;28;20484;-70
2023/04/01 06:17:14;;;;;;;0.50;0.50;;;9.80;99.90;;;;;;5001093;28;20447;-70
2023/04/01 06:20:14;;;;;;;0.50;0.50;;;10.00;99.90;;;;;;4993989;28;20487;-70
2023/04/01 06:23:14;;;;;;;1.50;0.50;;;10.20;99.90;;;;;;4995484;28;20464;-70
2023/04/01 06:26:05;;;;;;;2.50;0.50;;;10.30;99.90;;;;;;4993012;28;20429;-70
2023/04/01 06:28:49;;;;;;;0.80;0.50;;;10.20;99.90;;;;;;4993099;28;20834;-70
2023/04/01 06:31:36;;;;;;;4.63;0.80;;;10.40;99.90;;;;;;5000313;28;20454;-70
2023/04/01 06:34:39;;;;;;;1.80;0.50;;;10.80;99.90;;;;;;4996752;28;20847;-69
2023/04/01 06:37:23;;;;;;;1.33;0.50;;;10.70;99.90;;;;;;4996741;28;20437;-70
2023/04/01 06:40:34;;;;;;;0.60;0.50;;;10.50;99.90;;;;;;4992511;28;20433;-72
2023/04/01 06:43:18;;;;;;;3.50;0.50;;;10.30;99.90;;;;;;4989816;28;20433;-71
2023/04/01 06:45:43;;;;;;;0.60;0.40;;;10.10;99.90;;;;;;4992180;28;20438;-71
2023/04/01 06:48:28;;;;;;;1.63;0.60;;;9.90;99.90;;;;;;4992516;28;20421;-71
2023/04/01 06:51:02;;;;;;;1.13;0.87;;;9.80;99.90;;;;;;4992047;28;20252;-72
2023/04/01 06:53:53;;;;;;;1.20;0.53;;;9.90;99.90;;;;;;4992429;28;20430;-71
2023/04/01 06:56:23;;;;;;;1.70;0.50;;;9.80;99.90;;;;;;4999329;28;20425;-72
2023/04/01 06:58:54;;;;;;;2.00;0.60;;;10.00;99.90;;;;;;4992327;28;20444;-72
2023/04/01 07:01:41;;;;;;;2.93;0.70;;;9.90;99.90;;;;;;4992624;28;20807;-71
2023/04/01 07:04:35;;;;;;;0.90;0.80;;;9.90;99.90;;;;;;4992907;28;20417;-72
2023/04/01 07:07:04;;;;;;;3.60;0.57;;;10.00;99.90;;;;;;4985162;28;20477;-71
2023/04/01 07:09:36;;;;;;;0.70;0.50;;;10.00;99.90;;;;;;4987426;28;20560;-72
2023/04/01 07:12:11;;;;;;;1.10;0.63;;;10.00;99.90;;;;;;4990189;28;20973;-70
2023/04/01 07:14:41;;;;;;;0.73;0.40;;;10.00;99.90;;;;;;4993540;28;20511;-70
2023/04/01 07:17:26;;;;;;;1.10;0.70;;;10.00;99.90;;;;;;4999900;28;20836;-70
2023/04/01 07:20:20;;;;;;;3.13;0.57;;;10.00;99.90;;;;;;5001743;28;20525;-71
2023/04/01 07:22:55;;;;;;;1.93;0.50;;;10.00;99.90;;;;;;4994720;28;20438;-70
2023/04/01 07:25:25;;;;;;;0.70;0.40;;;9.90;99.90;;;;;;5000292;28;20837;-71
2023/04/01 07:27:55;;;;;;;0.43;0.43;;;9.90;99.90;;;;;;4991897;28;20464;-71
2023/04/01 07:30:23;;;;;;;1.80;0.50;;;9.90;99.90;;;;;;4991767;28;20467;-70
2023/04/01 07:32:54;;;;;;;0.50;0.40;;;9.80;99.90;;;;;;4987618;28;20430;-71
2023/04/01 07:35:38;;;;;;;0.70;0.40;;;9.90;99.90;;;;;;4993369;28;20770;-72
2023/04/01 07:38:31;;;;;;;0.70;0.50;;;9.80;99.90;;;;;;4987045;28;20527;-70
2023/04/01 07:41:26;;;;;;;1.03;0.60;;;9.80;99.90;;;;;;4989069;28;20466;-71
2023/04/01 07:44:07;;;;;;;3.03;0.43;;;9.70;99.90;;;;;;4999497;28;20429;-70
2023/04/01 07:47:08;;;;;;;0.93;0.40;;;9.80;99.90;;;;;;4991529;28;20789;-70
2023/04/01 07:49:39;;;;;;;1.53;0.60;;;9.80;99.90;;;;;;4990040;28;20475;-71
2023/04/01 07:52:25;;;;;;;1.00;0.50;;;9.90;99.90;;;;;;5003169;28;20540;-71
2023/04/01 07:54:56;;;;;;;1.00;0.70;;;9.90;99.90;;;;;;4992947;28;20427;-71
2023/04/01 07:57:39;;;;;;;0.57;0.40;;;10.00;99.90;;;;;;4989169;28;20476;-71
2023/04/01 08:00:13;;;;;;;2.60;0.60;;;10.10;99.90;;;;;;4991596;28;20429;-72
2023/04/01 08:03:05;;;;;;;0.93;0.50;;;10.20;99.90;;;;;;5007349;28;20456;-68
2023/04/01 08:05:40;;;;;;;0.77;0.50;;;10.30;99.90;;;;;;4985212;28;20443;-70
2023/04/01 08:08:06;;;;;;;2.00;0.50;;;10.40;99.90;;;;;;4989310;28;20821;-71
2023/04/01 08:10:51;;;;;;;1.20;0.60;;;10.30;99.90;;;;;;4992097;28;20468;-70
2023/04/01 08:13:42;;;;;;;2.10;0.50;;;10.40;99.90;;;;;;4985080;28;20193;-70
2023/04/01 08:16:27;;;;;;;0.90;0.50;;;10.40;99.90;;;;;;4972172;28;20997;-70
2023/04/01 08:19:20;;;;;;;0.60;0.40;;;10.30;99.90;;;;;;4989302;28;20473;-70
2023/04/01 08:21:55;;;;;;;0.50;0.50;;;10.30;99.90;;;;;;4991766;28;20460;-70
2023/04/01 08:24:35;;;;;;;0.40;0.40;;;10.50;99.90;;;;;;4997138;28;20430;-70
2023/04/01 08:27:09;;;;;;;1.93;0.50;;;10.60;99.90;;;;;;4990503;28;20991;-71
2023/04/01 08:29:56;;;;;;;2.57;0.50;;;10.60;99.90;;;;;;4989241;28;20487;-71
2023/04/01 08:32:41;;;;;;;2.70;0.50;;;10.70;99.90;;;;;;4994496;28;20473;-71
2023/04/01 08:35:17;;;;;;;4.00;0.50;;;10.60;99.90;;;;;;4989123;28;20488;-71
2023/04/01 08:37:45;;;;;;;0.53;0.43;;;10.50;99.90;;;;;;4988503;28;20428;-69
2023/04/01 08:40:29;;;;;;;1.50;0.47;;;10.50;99.90;;;;;;5010786;28;20937;-70
2023/04/01 08:43:00;;;;;;;1.00;0.40;;;10.40;99.90;;;;;;4991927;28;20521;-69
2023/04/01 08:45:44;;;;;;;0.83;0.47;;;10.10;99.90;;;;;;4990650;28;21018;-71
2023/04/01 08:48:35;;;;;;;1.20;0.63;;;10.10;99.90;;;;;;4986684;28;20452;-71
2023/04/01 08:51:22;;;;;;;0.70;0.40;;;10.00;99.90;;;;;;4993380;28;20468;-71
2023/04/01 08:53:58;;;;;;;2.23;0.70;;;9.80;99.90;;;;;;4987903;28;20438;-71
2023/04/01 08:56:29;;;;;;;1.93;0.63;;;9.70;99.90;;;;;;4992171;28;20476;-71
2023/04/01 08:59:00;;;;;;;0.70;0.40;;;9.60;99.90;;;;;;4972566;28;20425;-71
2023/04/01 09:01:53;;;;;;;0.90;0.50;;;9.50;99.90;;;;;;4986151;28;20959;-71
2023/04/01 09:04:53;;;;;;;1.47;0.60;;;9.50;99.90;;;;;;4985392;28;20420;-71
2023/04/01 09:07:59;;;;;;;2.20;0.60;;;9.50;99.90;;;;;;4962663;28;20544;-71
2023/04/01 09:10:57;;;;;;;1.13;0.50;;;9.50;99.90;;;;;;4988835;28;20473;-71
2023/04/01 09:13:56;;;;;;;0.87;0.47;;;9.60;99.90;;;;;;4988057;28;20439;-72
2023/04/01 09:16:24;;;;;;;2.53;0.60;;;9.60;99.90;;;;;;4989812;28;20452;-71
2023/04/01 09:19:14;;;;;;;0.73;0.50;;;9.60;99.90;;;;;;4989265;28;20437;-72
2023/04/01 09:22:08;;;;;;;0.50;0.40;;;9.70;99.90;;;;;;5002358;28;20842;-72
2023/04/01 09:24:42;;;;;;;0.40;0.40;;;9.70;99.90;;;;;;4994220;28;20542;-71
2023/04/01 09:27:28;;;;;;;0.70;0.50;;;9.90;99.90;;;;;;4984226;28;20425;-70
2023/04/01 09:30:05;;;;;;;1.30;0.50;;;10.10;99.90;;;;;;4991536;28;20468;-69
2023/04/01 09:32:51;;;;;;;0.67;0.40;;;10.30;99.90;;;;;;4988197;28;20461;-72
2023/04/01 09:35:36;;;;;;;0.80;0.50;;;10.60;99.90;;;;;;4991049;28;20418;-71
2023/04/01 09:38:26;;;;;;;1.67;0.50;;;10.80;99.90;;;;;;4989032;28;20444;-71
2023/04/01 09:40:55;;;;;;;0.40;0.40;;;10.80;99.90;;;;;;4991036;28;20461;-72
2023/04/01 09:43:33;;;;;;;0.50;0.50;;;10.70;99.90;;;;;;4992080;28;20446;-72
2023/04/01 09:46:17;;;;;;;0.40;0.40;;;10.50;99.90;;;;;;4993675;28;20461;-71
2023/04/01 09:48:51;;;;;;;0.40;0.40;;;10.40;99.90;;;;;;4999368;28;20516;-70
2023/04/01 09:51:55;;;;;;;5.27;0.50;;;10.40;99.90;;;;;;4984371;28;21006;-70
2023/04/01 09:54:42;;;;;;;1.10;0.60;;;10.30;99.90;;;;;;4999143;28;20977;-71
2023/04/01 09:57:36;;;;;;;0.40;0.40;;;10.20;99.90;;;;;;5003398;28;20460;-73
2023/04/01 10:00:40;;;;;;;2.00;0.40;;;10.20;99.90;;;;;;4995728;28;20438;-71
2023/04/01 10:03:33;;;;;;;0.77;0.40;;;10.40;99.90;;;;;;5004468;28;20417;-71
2023/04/01 10:06:22;;;;;;;0.40;0.40;;;10.40;99.90;;;;;;4996555;28;20507;-72
2023/04/01 10:09:33;;;;;;;0.30;0.30;;;10.40;99.90;;;;;;4996447;28;20472;-70
2023/04/01 10:12:19;;;;;;;0.50;0.40;;;10.40;99.90;;;;;;4977494;28;20464;-72
2023/04/01 10:14:54;;;;;;;0.60;0.60;;;10.40;99.90;;;;;;4993297;28;21009;-73
2023/04/01 10:17:46;;;;;;;0.43;0.40;;;10.50;99.90;;;;;;4986375;28;20410;-72
2023/04/01 10:20:34;;;;;;;0.50;0.40;;;10.60;99.90;;;;;;5001404;28;20465;-72
2023/04/01 10:23:29;;;;;;;5.70;0.40;;;10.80;99.90;;;;;;5001153;28;20433;-70
2023/04/01 10:26:10;;;;;;;0.40;0.40;;;11.20;99.90;;;;;;5000848;28;20433;-72
2023/04/01 10:28:55;;;;;;;0.40;0.40;;;11.50;99.90;;;;;;4990187;28;20425;-71
2023/04/01 10:31:38;;;;;;;0.40;0.40;;;11.60;99.90;;;;;;4995005;28;20476;-72
2023/04/01 10:34:26;;;;;;;0.77;0.40;;;11.50;99.90;;;;;;4991726;28;20820;-73
2023/04/01 10:36:56;;;;;;;0.90;0.43;;;11.30;99.90;;;;;;4991119;28;20489;-71
2023/04/01 10:39:25;;;;;;;5.63;0.40;;;11.10;99.90;;;;;;4999586;28;20818;-72
2023/04/01 10:42:16;;;;;;;0.40;0.40;;;10.90;99.90;;;;;;4991241;28;20481;-70
2023/04/01 10:45:07;;;;;;;0.30;0.30;;;10.80;99.90;;;;;;4991787;28;20454;-72
2023/04/01 10:47:52;;;;;;;0.40;0.40;;;10.80;99.90;;;;;;4974863;28;20835;-72
2023/04/01 10:50:29;;;;;;;0.80;0.40;;;10.80;99.90;;;;;;4991516;28;20853;-71
2023/04/01 10:53:09;;;;;;;0.40;0.40;;;10.90;99.90;;;;;;5007323;28;20480;-71
2023/04/01 10:56:16;;;;;;;0.30;0.30;;;10.90;99.90;;;;;;4991663;28;20458;-72
2023/04/01 10:59:15;;;;;;;0.30;0.30;;;10.80;99.90;;;;;;4894504;29;20439;-72
2023/04/01 11:02:08;;;;;;;0.40;0.40;;;10.80;99.90;;;;;;5000470;28;20458;-71
2023/04/01 11:04:57;;;;;;;0.30;0.30;;;10.80;99.90;;;;;;4998439;28;20488;-70
2023/04/01 11:07:46;;;;;;;0.30;0.30;;;10.80;99.90;;;;;;4999287;28;20506;-71
2023/04/01 11:10:49;;;;;;;0.40;0.40;;;10.90;99.90;;;;;;5000141;28;20885;-74
2023/04/01 11:13:51;;;;;;;0.40;0.30;;;11.00;99.90;;;;;;4992287;28;20848;-72
2023/04/01 11:16:53;;;;;;;0.50;0.40;;;11.20;99.90;;;;;;4995475;28;20421;-71
2023/04/01 11:19:42;;;;;;;0.40;0.40;;;11.40;99.90;;;;;;5003538;28;20792;-70
2023/04/01 11:22:37;;;;;;;0.40;0.40;;;11.60;99.90;;;;;;4987233;28;20537;-71
2023/04/01 11:25:30;;;;;;;0.30;0.30;;;11.70;99.90;;;;;;4987828;28;20432;-72
2023/04/01 11:28:17;;;;;;;0.30;0.30;;;11.60;99.90;;;;;;5008293;28;20437;-69
2023/04/01 11:31:07;;;;;;;1.60;0.40;;;11.70;99.90;;;;;;4995992;28;20474;-71
2023/04/01 11:33:55;;;;;;;0.30;0.30;;;11.60;99.90;;;;;;4991721;28;20915;-70
2023/04/01 11:36:47;;;;;;;0.40;0.37;;;11.70;99.90;;;;;;4984344;28;20951;-71
2023/04/01 11:39:35;;;;;;;0.40;0.40;;;11.80;99.90;;;;;;4994455;28;20433;-70
2023/04/01 11:42:07;;;;;;;0.40;0.40;;;12.00;99.90;;;;;;4993151;28;20883;-69
2023/04/01 11:44:39;;;;;;;0.40;0.40;;;12.20;99.90;;;;;;4991697;28;20437;-70
2023/04/01 11:47:27;;;;;;;0.30;0.30;;;12.20;99.90;;;;;;4991191;28;20946;-69
2023/04/01 11:50:18;;;;;;;0.40;0.37;;;12.30;99.90;;;;;;4986411;28;20540;-69
2023/04/01 11:53:09;;;;;;;0.40;0.40;;;12.30;99.90;;;;;;4982576;28;20539;-71
2023/04/01 11:55:47;;;;;;;0.40;0.30;;;12.20;99.90;;;;;;4983003;28;20431;-71
2023/04/01 11:58:46;;;;;;;1.33;0.37;;;12.10;99.90;;;;;;4985096;28;20542;-71
2023/04/01 12:01:29;;;;;;;0.37;0.30;;;12.00;99.90;;;;;;4987403;28;20443;-71
2023/04/01 12:04:24;;;;;;;0.30;0.30;;;12.10;99.90;;;;;;4984110;28;20427;-70
2023/04/01 12:07:15;;;;;;;0.40;0.40;;;11.80;99.90;;;;;;4983444;28;21029;-71
2023/04/01 12:10:22;;;;;;;0.37;0.37;;;11.60;99.90;;;;;;4982867;28;20474;-71
2023/04/01 12:13:19;;;;;;;0.33;0.30;;;11.60;99.90;;;;;;4991946;28;20430;-72
2023/04/01 12:15:54;;;;;;;0.40;0.30;;;11.50;99.90;;;;;;4987315;28;20477;-72
2023/04/01 12:18:46;;;;;;;1.47;0.30;;;11.60;99.90;;;;;;4985529;28;20422;-72
2023/04/01 12:21:37;;;;;;;1.13;0.40;;;11.60;99.90;;;;;;4985292;28;20454;-72
2023/04/01 12:24:39;;;;;;;0.40;0.30;;;11.50;99.90;;;;;;4984186;28;20434;-72
2023/04/01 12:27:30;;;;;;;0.77;0.30;;;11.40;99.90;;;;;;4983234;28;20443;-70
2023/04/01 12:30:30;;;;;;;0.40;0.33;;;11.50;99.90;;;;;;4995899;28;20556;-71
2023/04/01 12:33:20;;;;;;;0.30;0.30;;;11.40;99.90;;;;;;4987379;28;20431;-70
2023/04/01 12:36:00;;;;;;;0.50;0.40;;;11.40;99.90;;;;;;4994310;28;20438;-72
2023/04/01 12:39:04;;;;;;;0.40;0.30;;;11.60;99.90;;;;;;4982207;28;20430;-71
2023/04/01 12:41:48;;;;;;;0.40;0.30;;;11.80;99.90;;;;;;4986134;28;20877;-72
2023/04/01 12:44:14;;;;;;;0.40;0.30;;;11.90;99.90;;;;;;4990082;28;20473;-70
2023/04/01 12:47:07;;;;;;;0.37;0.37;;;12.00;99.90;;;;;;4990852;28;20462;-72
2023/04/01 12:49:56;;;;;;;0.40;0.30;;;11.90;99.90;;;;;;4993509;28;20214;-71
2023/04/01 12:53:03;;;;;;;0.40;0.30;;;12.00;99.90;;;;;;4982921;28;20442;-70
2023/04/01 12:55:50;;;;;;;0.30;0.30;;;12.00;99.90;;;;;;4994147;28;20589;-71
2023/04/01 12:58:35;;;;;;;0.73;0.40;;;12.00;99.90;;;;;;4994323;28;20422;-71
2023/04/01 13:01:19;;;;;;;0.40;0.40;;;12.10;99.90;;;;;;4994340;28;20512;-71
2023/04/01 13:04:11;;;;;;;1.80;0.40;;;12.20;99.90;;;;;;4989375;28;20430;-72
2023/04/01 13:07:07;;;;;;;0.90;0.30;;;12.20;99.90;;;;;;4988327;28;20431;-70
2023/04/01 13:09:47;;;;;;;0.50;0.40;;;12.10;99.90;;;;;;4993527;28;21197;-70
2023/04/01 13:12:26;;;;;;;0.30;0.30;;;12.00;99.90;;;;;;4994119;28;20481;-71
2023/04/01 13:15:25;;;;;;;0.40;0.40;;;12.00;99.90;;;;;;4994009;28;20946;-70
2023/04/01 13:17:54;;;;;;;0.40;0.40;;;11.90;99.90;;;;;;5002504;28;20548;-71
2023/04/01 13:20:26;;;;;;;0.40;0.40;;;11.70;99.90;;;;;;4993870;28;20514;-71
2023/04/01 13:23:06;;;;;;;0.90;0.40;;;11.60;99.90;;;;;;4994304;28;20438;-71
2023/04/01 13:26:08;;;;;;;1.10;0.60;;;11.50;99.90;;;;;;4993742;28;20434;-71
2023/04/01 13:28:53;;;;;;;0.50;0.40;;;11.60;99.90;;;;;;4993886;28;20533;-71
2023/04/01 13:31:37;;;;;;;0.40;0.40;;;11.80;99.90;;;;;;4993413;28;20469;-70
2023/04/01 13:34:47;;;;;;;0.40;0.40;;;12.00;99.90;;;;;;4990324;28;20434;-71
2023/04/01 13:37:25;;;;;;;1.60;0.30;;;12.20;99.90;;;;;;4988877;28;20477;-70
2023/04/01 13:40:19;;;;;;;0.30;0.30;;;12.20;99.90;;;;;;4987666;28;20582;-70
2023/04/01 13:42:49;;;;;;;0.50;0.40;;;12.20;99.90;;;;;;4992423;28;20810;-71
2023/04/01 13:45:19;;;;;;;0.30;0.30;;;12.20;99.90;;;;;;4997182;28;20434;-70
2023/04/01 13:48:16;;;;;;;0.33;0.33;;;12.20;99.90;;;;;;4998161;28;20854;-71
2023/04/01 13:51:15;;;;;;;0.37;0.37;;;12.20;99.90;;;;;;5001240;28;20476;-71
2023/04/01 13:54:18;;;;;;;0.40;0.30;;;12.00;99.90;;;;;;4995784;28;20426;-72
2023/04/01 13:57:21;;;;;;;0.30;0.30;;;12.10;99.90;;;;;;4993281;28;20469;-71
2023/04/01 14:00:20;;;;;;;0.40;0.40;;;12.00;99.90;;;;;;4984122;28;20468;-70
2023/04/01 14:03:26;;;;;;;0.40;0.40;;;11.90;99.90;;;;;;5002751;28;20441;-71
2023/04/01 14:06:11;;;;;;;0.60;0.60;;;11.80;99.90;;;;;;4988512;28;20500;-71
2023/04/01 14:09:06;;;;;;;0.40;0.30;;;12.00;99.90;;;;;;4998431;28;20464;-70
2023/04/01 14:12:06;;;;;;;0.40;0.30;;;12.10;99.90;;;;;;5012729;28;20464;-70
2023/04/01 14:14:44;;;;;;;0.30;0.30;;;11.90;99.90;;;;;;5000153;28;21247;-70
2023/04/01 14:17:31;;;;;;;2.20;0.30;;;11.80;99.90;;;;;;5001075;28;20512;-71
2023/04/01 14:20:15;;;;;;;0.30;0.30;;;11.70;99.90;;;;;;5001409;28;20466;-71
2023/04/01 14:23:02;;;;;;;0.40;0.30;;;11.60;99.90;;;;;;4987147;28;20961;-70
2023/04/01 14:26:05;;;;;;;0.40;0.40;;;11.60;99.90;;;;;;5000777;28;20978;-71
2023/04/01 14:28:36;;;;;;;0.40;0.30;;;11.60;99.90;;;;;;4997715;28;20828;-71
2023/04/01 14:31:23;;;;;;;0.32;0.32;;;11.60;99.90;;;;;;5003973;28;20539;-68
2023/04/01 14:34:15;;;;;;;0.80;0.40;;;11.60;99.90;;;;;;4992228;28;20409;-71
2023/04/01 14:37:14;;;;;;;0.40;0.40;;;11.50;99.90;;;;;;4990182;28;20198;-71
2023/04/01 14:40:02;;;;;;;1.10;0.40;;;11.40;99.90;;;;;;4990951;28;20488;-71
2023/04/01 14:42:27;;;;;;;0.50;0.40;;;11.30;99.90;;;;;;4994180;28;20460;-72
2023/04/01 14:45:19;;;;;;;0.40;0.30;;;11.20;99.90;;;;;;4995239;28;21030;-71
2023/04/01 14:47:48;;;;;;;0.30;0.30;;;11.20;99.90;;;;;;4992572;28;20191;-71
2023/04/01 14:50:18;;;;;;;1.10;0.40;;;11.20;99.90;;;;;;4991564;28;20493;-71
2023/04/01 14:52:55;;;;;;;1.33;0.30;;;11.20;99.90;;;;;;4992699;28;20839;-71
2023/04/01 14:55:34;;;;;;;0.40;0.40;;;11.20;99.90;;;;;;4994078;28;20425;-71
2023/04/01 14:58:14;;;;;;;0.30;0.30;;;11.30;99.90;;;;;;4992024;28;20469;-70
2023/04/01 15:01:01;;;;;;;0.40;0.30;;;11.30;99.90;;;;;;4988931;28;20430;-72
2023/04/01 15:03:36;;;;;;;0.60;0.40;;;11.40;99.90;;;;;;4992084;28;20771;-72
2023/04/01 15:06:44;;;;;;;0.40;0.40;;;11.40;99.90;;;;;;4991981;28;20441;-71
2023/04/01 15:09:35;;;;;;;0.87;0.40;;;11.40;99.90;;;;;;4993636;28;20445;-71
2023/04/01 15:12:18;;;;;;;0.40;0.30;;;11.40;99.90;;;;;;4996948;28;20446;-71
2023/04/01 15:15:14;;;;;;;0.40;0.40;;;11.40;99.90;;;;;;4989930;28;20430;-71
2023/04/01 15:18:02;;;;;;;0.40;0.40;;;11.50;99.90;;;;;;4985034;28;20450;-71
2023/04/01 15:20:36;;;;;;;0.50;0.40;;;11.50;99.90;;;;;;5000089;28;20441;-72
2023/04/01 15:23:11;;;;;;;0.43;0.40;;;11.60;99.90;;;;;;4996255;28;20445;-71